sensor_id;sensor_type;location;lat;lon;timestamp;P1;durP1;ratioP1;P2;durP2;ratioP2
77262;SDS011;66373;52.334;4.806;2024-01-30T00:00:33;12.63;;;9.13;;
77262;SDS011;66373;52.334;4.806;2024-01-30T00:03:00;13.68;;;9.90;;
77262;SDS011;66373;52.334;4.806;2024-01-30T00:05:29;16.73;;;9.73;;
77262;SDS011;66373;52.334;4.806;2024-01-30T00:07:56;14.55;;;9.70;;
77262;SDS011;66373;52.334;4.806;2024-01-30T00:10:23;14.75;;;9.18;;
77262;SDS011;66373;52.334;4.806;2024-01-30T00:12:51;12.77;;;9.02;;
77262;SDS011;66373;52.334;4.806;2024-01-30T00:15:18;12.57;;;9.25;;
77262;SDS011;66373;52.334;4.806;2024-01-30T00:17:45;12.98;;;9.52;;
77262;SDS011;66373;52.334;4.806;2024-01-30T00:20:12;13.93;;;9.52;;
77262;SDS011;66373;52.334;4.806;2024-01-30T00:22:41;12.13;;;8.43;;
77262;SDS011;66373;52.334;4.806;2024-01-30T00:25:08;12.88;;;8.93;;
77262;SDS011;66373;52.334;4.806;2024-01-30T00:27:36;12.88;;;8.52;;
77262;SDS011;66373;52.334;4.806;2024-01-30T00:30:03;13.02;;;8.35;;
77262;SDS011;66373;52.334;4.806;2024-01-30T00:32:32;10.85;;;8.40;;
77262;SDS011;66373;52.334;4.806;2024-01-30T00:34:59;11.45;;;8.30;;
77262;SDS011;66373;52.334;4.806;2024-01-30T00:37:26;12.50;;;8.75;;
77262;SDS011;66373;52.334;4.806;2024-01-30T00:39:55;12.15;;;8.90;;
77262;SDS011;66373;52.334;4.806;2024-01-30T00:42:22;11.25;;;8.00;;
77262;SDS011;66373;52.334;4.806;2024-01-30T00:44:50;11.68;;;7.97;;
77262;SDS011;66373;52.334;4.806;2024-01-30T00:47:17;12.73;;;8.93;;
77262;SDS011;66373;52.334;4.806;2024-01-30T00:49:44;10.88;;;8.25;;
77262;SDS011;66373;52.334;4.806;2024-01-30T00:52:12;10.88;;;7.53;;
77262;SDS011;66373;52.334;4.806;2024-01-30T00:54:39;9.90;;;7.47;;
77262;SDS011;66373;52.334;4.806;2024-01-30T00:57:07;10.48;;;7.32;;
77262;SDS011;66373;52.334;4.806;2024-01-30T00:59:35;9.02;;;7.45;;
77262;SDS011;66373;52.334;4.806;2024-01-30T01:02:02;10.38;;;7.05;;
77262;SDS011;66373;52.334;4.806;2024-01-30T01:04:29;9.90;;;7.03;;
77262;SDS011;66373;52.334;4.806;2024-01-30T01:06:56;9.82;;;6.97;;
77262;SDS011;66373;52.334;4.806;2024-01-30T01:09:23;9.82;;;7.78;;
77262;SDS011;66373;52.334;4.806;2024-01-30T01:11:51;10.90;;;7.25;;
77262;SDS011;66373;52.334;4.806;2024-01-30T01:14:19;10.07;;;7.25;;
77262;SDS011;66373;52.334;4.806;2024-01-30T01:16:46;11.20;;;7.70;;
77262;SDS011;66373;52.334;4.806;2024-01-30T01:19:13;11.00;;;7.47;;
77262;SDS011;66373;52.334;4.806;2024-01-30T01:21:40;8.35;;;7.13;;
77262;SDS011;66373;52.334;4.806;2024-01-30T01:24:07;8.50;;;7.07;;
77262;SDS011;66373;52.334;4.806;2024-01-30T01:26:34;8.80;;;6.53;;
77262;SDS011;66373;52.334;4.806;2024-01-30T01:29:01;8.65;;;6.25;;
77262;SDS011;66373;52.334;4.806;2024-01-30T01:31:36;10.10;;;6.60;;
77262;SDS011;66373;52.334;4.806;2024-01-30T01:34:09;9.25;;;6.88;;
77262;SDS011;66373;52.334;4.806;2024-01-30T01:36:36;11.15;;;6.90;;
77262;SDS011;66373;52.334;4.806;2024-01-30T01:39:03;8.52;;;6.15;;
77262;SDS011;66373;52.334;4.806;2024-01-30T01:41:30;8.88;;;6.65;;
77262;SDS011;66373;52.334;4.806;2024-01-30T01:43:58;9.50;;;6.78;;
77262;SDS011;66373;52.334;4.806;2024-01-30T01:46:26;8.73;;;6.57;;
77262;SDS011;66373;52.334;4.806;2024-01-30T01:48:56;8.13;;;6.03;;
77262;SDS011;66373;52.334;4.806;2024-01-30T01:51:23;7.93;;;6.13;;
77262;SDS011;66373;52.334;4.806;2024-01-30T01:53:52;9.70;;;6.63;;
77262;SDS011;66373;52.334;4.806;2024-01-30T01:56:21;8.63;;;5.93;;
77262;SDS011;66373;52.334;4.806;2024-01-30T01:58:49;7.55;;;6.07;;
77262;SDS011;66373;52.334;4.806;2024-01-30T02:01:18;7.32;;;5.82;;
77262;SDS011;66373;52.334;4.806;2024-01-30T02:03:46;8.68;;;6.25;;
77262;SDS011;66373;52.334;4.806;2024-01-30T02:06:15;8.18;;;6.10;;
77262;SDS011;66373;52.334;4.806;2024-01-30T02:08:43;8.50;;;6.15;;
77262;SDS011;66373;52.334;4.806;2024-01-30T02:11:10;7.40;;;5.93;;
77262;SDS011;66373;52.334;4.806;2024-01-30T02:13:38;7.72;;;6.05;;
77262;SDS011;66373;52.334;4.806;2024-01-30T02:16:05;7.70;;;5.53;;
77262;SDS011;66373;52.334;4.806;2024-01-30T02:18:32;7.65;;;6.05;;
77262;SDS011;66373;52.334;4.806;2024-01-30T02:21:04;7.97;;;6.00;;
77262;SDS011;66373;52.334;4.806;2024-01-30T02:23:32;5.88;;;5.25;;
77262;SDS011;66373;52.334;4.806;2024-01-30T02:26:00;6.68;;;5.45;;
77262;SDS011;66373;52.334;4.806;2024-01-30T02:28:27;6.88;;;5.45;;
77262;SDS011;66373;52.334;4.806;2024-01-30T02:30:54;8.30;;;5.80;;
77262;SDS011;66373;52.334;4.806;2024-01-30T02:33:21;6.22;;;5.05;;
77262;SDS011;66373;52.334;4.806;2024-01-30T02:35:48;7.70;;;5.28;;
77262;SDS011;66373;52.334;4.806;2024-01-30T02:38:17;6.97;;;5.57;;
77262;SDS011;66373;52.334;4.806;2024-01-30T02:40:44;7.18;;;5.80;;
77262;SDS011;66373;52.334;4.806;2024-01-30T02:43:11;7.35;;;5.13;;
77262;SDS011;66373;52.334;4.806;2024-01-30T02:45:39;8.35;;;5.55;;
77262;SDS011;66373;52.334;4.806;2024-01-30T02:48:07;7.05;;;5.35;;
77262;SDS011;66373;52.334;4.806;2024-01-30T02:50:34;7.82;;;5.38;;
77262;SDS011;66373;52.334;4.806;2024-01-30T02:53:01;5.35;;;4.82;;
77262;SDS011;66373;52.334;4.806;2024-01-30T02:55:30;6.32;;;5.07;;
77262;SDS011;66373;52.334;4.806;2024-01-30T02:57:57;6.90;;;4.80;;
77262;SDS011;66373;52.334;4.806;2024-01-30T03:00:24;7.32;;;5.38;;
77262;SDS011;66373;52.334;4.806;2024-01-30T03:02:51;5.20;;;4.70;;
77262;SDS011;66373;52.334;4.806;2024-01-30T03:05:18;8.65;;;5.22;;
77262;SDS011;66373;52.334;4.806;2024-01-30T03:07:45;6.07;;;4.97;;
77262;SDS011;66373;52.334;4.806;2024-01-30T03:10:13;5.63;;;5.05;;
77262;SDS011;66373;52.334;4.806;2024-01-30T03:12:41;6.07;;;4.82;;
77262;SDS011;66373;52.334;4.806;2024-01-30T03:15:08;6.10;;;4.70;;
77262;SDS011;66373;52.334;4.806;2024-01-30T03:17:36;6.00;;;4.85;;
77262;SDS011;66373;52.334;4.806;2024-01-30T03:20:03;7.38;;;4.80;;
77262;SDS011;66373;52.334;4.806;2024-01-30T03:22:31;5.63;;;4.65;;
77262;SDS011;66373;52.334;4.806;2024-01-30T03:24:58;6.13;;;4.93;;
77262;SDS011;66373;52.334;4.806;2024-01-30T03:27:25;6.22;;;4.82;;
77262;SDS011;66373;52.334;4.806;2024-01-30T03:29:54;5.68;;;4.60;;
77262;SDS011;66373;52.334;4.806;2024-01-30T03:32:21;6.28;;;4.78;;
77262;SDS011;66373;52.334;4.806;2024-01-30T03:34:48;4.95;;;4.45;;
77262;SDS011;66373;52.334;4.806;2024-01-30T03:37:15;5.78;;;4.80;;
77262;SDS011;66373;52.334;4.806;2024-01-30T03:39:42;6.65;;;4.57;;
77262;SDS011;66373;52.334;4.806;2024-01-30T03:42:10;6.25;;;5.15;;
77262;SDS011;66373;52.334;4.806;2024-01-30T03:44:37;5.40;;;4.65;;
77262;SDS011;66373;52.334;4.806;2024-01-30T03:47:05;6.18;;;4.82;;
77262;SDS011;66373;52.334;4.806;2024-01-30T03:49:32;4.97;;;4.47;;
77262;SDS011;66373;52.334;4.806;2024-01-30T03:51:59;5.38;;;4.53;;
77262;SDS011;66373;52.334;4.806;2024-01-30T03:54:26;5.65;;;4.53;;
77262;SDS011;66373;52.334;4.806;2024-01-30T03:56:54;5.45;;;4.18;;
77262;SDS011;66373;52.334;4.806;2024-01-30T03:59:21;4.80;;;4.32;;
77262;SDS011;66373;52.334;4.806;2024-01-30T04:01:49;5.63;;;4.53;;
77262;SDS011;66373;52.334;4.806;2024-01-30T04:04:18;4.85;;;4.38;;
77262;SDS011;66373;52.334;4.806;2024-01-30T04:06:45;5.15;;;4.05;;
77262;SDS011;66373;52.334;4.806;2024-01-30T04:09:13;4.65;;;3.90;;
77262;SDS011;66373;52.334;4.806;2024-01-30T04:11:40;5.00;;;4.50;;
77262;SDS011;66373;52.334;4.806;2024-01-30T04:14:07;5.40;;;4.25;;
77262;SDS011;66373;52.334;4.806;2024-01-30T04:16:34;4.72;;;4.22;;
77262;SDS011;66373;52.334;4.806;2024-01-30T04:19:01;5.05;;;4.55;;
77262;SDS011;66373;52.334;4.806;2024-01-30T04:21:30;4.90;;;4.38;;
77262;SDS011;66373;52.334;4.806;2024-01-30T04:23:57;5.80;;;4.10;;
77262;SDS011;66373;52.334;4.806;2024-01-30T04:26:24;4.72;;;4.30;;
77262;SDS011;66373;52.334;4.806;2024-01-30T04:28:51;5.57;;;4.60;;
77262;SDS011;66373;52.334;4.806;2024-01-30T04:31:18;4.90;;;4.40;;
77262;SDS011;66373;52.334;4.806;2024-01-30T04:33:46;6.32;;;4.18;;
77262;SDS011;66373;52.334;4.806;2024-01-30T04:36:13;4.40;;;4.00;;
77262;SDS011;66373;52.334;4.806;2024-01-30T04:38:41;5.95;;;4.43;;
77262;SDS011;66373;52.334;4.806;2024-01-30T04:41:08;4.20;;;3.78;;
77262;SDS011;66373;52.334;4.806;2024-01-30T04:43:35;4.65;;;4.20;;
77262;SDS011;66373;52.334;4.806;2024-01-30T04:46:03;5.88;;;4.38;;
77262;SDS011;66373;52.334;4.806;2024-01-30T04:48:31;4.97;;;4.35;;
77262;SDS011;66373;52.334;4.806;2024-01-30T04:50:58;4.30;;;3.90;;
77262;SDS011;66373;52.334;4.806;2024-01-30T04:53:29;4.25;;;3.85;;
77262;SDS011;66373;52.334;4.806;2024-01-30T04:55:58;4.05;;;3.65;;
77262;SDS011;66373;52.334;4.806;2024-01-30T04:58:25;4.82;;;4.15;;
77262;SDS011;66373;52.334;4.806;2024-01-30T05:00:52;4.18;;;3.58;;
77262;SDS011;66373;52.334;4.806;2024-01-30T05:03:19;4.63;;;3.83;;
77262;SDS011;66373;52.334;4.806;2024-01-30T05:05:47;4.18;;;3.78;;
77262;SDS011;66373;52.334;4.806;2024-01-30T05:08:14;4.53;;;3.78;;
77262;SDS011;66373;52.334;4.806;2024-01-30T05:10:42;6.07;;;4.32;;
77262;SDS011;66373;52.334;4.806;2024-01-30T05:13:10;3.65;;;3.35;;
77262;SDS011;66373;52.334;4.806;2024-01-30T05:15:39;4.18;;;3.80;;
77262;SDS011;66373;52.334;4.806;2024-01-30T05:18:06;4.05;;;3.65;;
77262;SDS011;66373;52.334;4.806;2024-01-30T05:20:33;4.50;;;4.10;;
77262;SDS011;66373;52.334;4.806;2024-01-30T05:23:00;4.25;;;3.75;;
77262;SDS011;66373;52.334;4.806;2024-01-30T05:25:27;4.15;;;3.75;;
77262;SDS011;66373;52.334;4.806;2024-01-30T05:27:54;5.40;;;4.05;;
77262;SDS011;66373;52.334;4.806;2024-01-30T05:30:23;4.07;;;3.67;;
77262;SDS011;66373;52.334;4.806;2024-01-30T05:32:50;4.40;;;4.00;;
77262;SDS011;66373;52.334;4.806;2024-01-30T05:35:18;4.65;;;4.03;;
77262;SDS011;66373;52.334;4.806;2024-01-30T05:37:47;4.15;;;3.72;;
77262;SDS011;66373;52.334;4.806;2024-01-30T05:40:14;4.40;;;3.90;;
77262;SDS011;66373;52.334;4.806;2024-01-30T05:42:42;5.13;;;3.78;;
77262;SDS011;66373;52.334;4.806;2024-01-30T05:45:09;6.18;;;3.40;;
77262;SDS011;66373;52.334;4.806;2024-01-30T05:47:37;4.38;;;3.97;;
77262;SDS011;66373;52.334;4.806;2024-01-30T05:50:06;4.10;;;3.70;;
77262;SDS011;66373;52.334;4.806;2024-01-30T05:52:34;5.65;;;3.47;;
77262;SDS011;66373;52.334;4.806;2024-01-30T05:55:01;5.05;;;4.00;;
77262;SDS011;66373;52.334;4.806;2024-01-30T05:57:29;4.32;;;3.92;;
77262;SDS011;66373;52.334;4.806;2024-01-30T05:59:56;5.22;;;3.50;;
77262;SDS011;66373;52.334;4.806;2024-01-30T06:02:23;4.53;;;3.85;;
77262;SDS011;66373;52.334;4.806;2024-01-30T06:04:51;3.53;;;3.22;;
77262;SDS011;66373;52.334;4.806;2024-01-30T06:07:18;4.05;;;3.40;;
77262;SDS011;66373;52.334;4.806;2024-01-30T06:09:46;4.13;;;3.47;;
77262;SDS011;66373;52.334;4.806;2024-01-30T06:12:13;4.25;;;3.58;;
77262;SDS011;66373;52.334;4.806;2024-01-30T06:14:40;3.75;;;3.28;;
77262;SDS011;66373;52.334;4.806;2024-01-30T06:17:08;5.63;;;3.83;;
77262;SDS011;66373;52.334;4.806;2024-01-30T06:19:37;4.45;;;3.88;;
77262;SDS011;66373;52.334;4.806;2024-01-30T06:22:05;3.50;;;3.17;;
77262;SDS011;66373;52.334;4.806;2024-01-30T06:24:33;3.97;;;3.58;;
77262;SDS011;66373;52.334;4.806;2024-01-30T06:27:00;5.45;;;3.47;;
77262;SDS011;66373;52.334;4.806;2024-01-30T06:29:27;3.72;;;3.35;;
77262;SDS011;66373;52.334;4.806;2024-01-30T06:31:54;3.83;;;3.38;;
77262;SDS011;66373;52.334;4.806;2024-01-30T06:34:21;3.67;;;3.38;;
77262;SDS011;66373;52.334;4.806;2024-01-30T06:36:48;5.55;;;3.88;;
77262;SDS011;66373;52.334;4.806;2024-01-30T06:39:17;3.90;;;3.50;;
77262;SDS011;66373;52.334;4.806;2024-01-30T06:41:44;4.13;;;3.60;;
77262;SDS011;66373;52.334;4.806;2024-01-30T06:44:12;6.15;;;3.47;;
77262;SDS011;66373;52.334;4.806;2024-01-30T06:46:39;7.65;;;3.85;;
77262;SDS011;66373;52.334;4.806;2024-01-30T06:49:06;4.25;;;3.78;;
77262;SDS011;66373;52.334;4.806;2024-01-30T06:51:33;3.85;;;3.38;;
77262;SDS011;66373;52.334;4.806;2024-01-30T06:54:00;4.35;;;3.55;;
77262;SDS011;66373;52.334;4.806;2024-01-30T06:56:29;3.63;;;3.20;;
77262;SDS011;66373;52.334;4.806;2024-01-30T06:58:56;3.72;;;3.25;;
77262;SDS011;66373;52.334;4.806;2024-01-30T07:01:27;5.00;;;3.72;;
77262;SDS011;66373;52.334;4.806;2024-01-30T07:03:54;3.92;;;3.35;;
77262;SDS011;66373;52.334;4.806;2024-01-30T07:06:22;4.38;;;3.20;;
77262;SDS011;66373;52.334;4.806;2024-01-30T07:08:49;3.70;;;3.22;;
77262;SDS011;66373;52.334;4.806;2024-01-30T07:11:18;3.33;;;3.03;;
77262;SDS011;66373;52.334;4.806;2024-01-30T07:13:46;6.22;;;4.05;;
77262;SDS011;66373;52.334;4.806;2024-01-30T07:16:14;7.88;;;3.50;;
77262;SDS011;66373;52.334;4.806;2024-01-30T07:18:41;8.90;;;3.60;;
77262;SDS011;66373;52.334;4.806;2024-01-30T07:21:08;7.82;;;3.40;;
77262;SDS011;66373;52.334;4.806;2024-01-30T07:23:35;8.35;;;3.42;;
77262;SDS011;66373;52.334;4.806;2024-01-30T07:26:04;9.18;;;3.65;;
77262;SDS011;66373;52.334;4.806;2024-01-30T07:28:31;6.00;;;3.78;;
77262;SDS011;66373;52.334;4.806;2024-01-30T07:31:00;5.07;;;3.20;;
77262;SDS011;66373;52.334;4.806;2024-01-30T07:33:28;5.55;;;3.20;;
77262;SDS011;66373;52.334;4.806;2024-01-30T07:35:55;4.80;;;3.50;;
77262;SDS011;66373;52.334;4.806;2024-01-30T07:38:23;4.88;;;2.92;;
77262;SDS011;66373;52.334;4.806;2024-01-30T07:40:50;4.97;;;2.72;;
77262;SDS011;66373;52.334;4.806;2024-01-30T07:43:17;6.68;;;3.22;;
77262;SDS011;66373;52.334;4.806;2024-01-30T07:45:45;8.15;;;3.35;;
77262;SDS011;66373;52.334;4.806;2024-01-30T07:48:13;7.78;;;3.38;;
77262;SDS011;66373;52.334;4.806;2024-01-30T07:50:41;5.50;;;3.65;;
77262;SDS011;66373;52.334;4.806;2024-01-30T07:53:08;4.25;;;3.00;;
77262;SDS011;66373;52.334;4.806;2024-01-30T07:55:35;5.85;;;3.38;;
77262;SDS011;66373;52.334;4.806;2024-01-30T07:58:02;3.70;;;3.35;;
77262;SDS011;66373;52.334;4.806;2024-01-30T08:00:30;9.95;;;3.63;;
77262;SDS011;66373;52.334;4.806;2024-01-30T08:02:57;3.70;;;3.40;;
77262;SDS011;66373;52.334;4.806;2024-01-30T08:05:25;5.13;;;3.15;;
77262;SDS011;66373;52.334;4.806;2024-01-30T08:07:52;5.60;;;3.60;;
77262;SDS011;66373;52.334;4.806;2024-01-30T08:10:20;5.55;;;3.65;;
77262;SDS011;66373;52.334;4.806;2024-01-30T08:12:47;4.65;;;3.35;;
77262;SDS011;66373;52.334;4.806;2024-01-30T08:15:14;4.05;;;3.33;;
77262;SDS011;66373;52.334;4.806;2024-01-30T08:17:41;4.22;;;3.28;;
77262;SDS011;66373;52.334;4.806;2024-01-30T08:20:10;6.05;;;3.85;;
77262;SDS011;66373;52.334;4.806;2024-01-30T08:22:39;4.40;;;3.33;;
77262;SDS011;66373;52.334;4.806;2024-01-30T08:25:07;9.32;;;3.65;;
77262;SDS011;66373;52.334;4.806;2024-01-30T08:27:35;7.90;;;3.25;;
77262;SDS011;66373;52.334;4.806;2024-01-30T08:30:04;7.00;;;3.30;;
77262;SDS011;66373;52.334;4.806;2024-01-30T08:32:32;4.38;;;3.78;;
77262;SDS011;66373;52.334;4.806;2024-01-30T08:35:00;3.95;;;3.53;;
77262;SDS011;66373;52.334;4.806;2024-01-30T08:37:28;3.83;;;3.40;;
77262;SDS011;66373;52.334;4.806;2024-01-30T08:39:57;5.75;;;3.47;;
77262;SDS011;66373;52.334;4.806;2024-01-30T08:42:25;5.93;;;3.28;;
77262;SDS011;66373;52.334;4.806;2024-01-30T08:44:52;5.22;;;3.58;;
77262;SDS011;66373;52.334;4.806;2024-01-30T08:47:19;6.25;;;3.40;;
77262;SDS011;66373;52.334;4.806;2024-01-30T08:49:46;4.30;;;3.72;;
77262;SDS011;66373;52.334;4.806;2024-01-30T08:52:14;4.60;;;3.45;;
77262;SDS011;66373;52.334;4.806;2024-01-30T08:54:41;5.25;;;3.60;;
77262;SDS011;66373;52.334;4.806;2024-01-30T08:57:09;4.15;;;3.85;;
77262;SDS011;66373;52.334;4.806;2024-01-30T08:59:37;7.43;;;4.10;;
77262;SDS011;66373;52.334;4.806;2024-01-30T09:02:04;6.75;;;3.67;;
77262;SDS011;66373;52.334;4.806;2024-01-30T09:04:31;4.68;;;3.42;;
77262;SDS011;66373;52.334;4.806;2024-01-30T09:06:58;7.85;;;4.07;;
77262;SDS011;66373;52.334;4.806;2024-01-30T09:09:25;8.48;;;3.92;;
77262;SDS011;66373;52.334;4.806;2024-01-30T09:11:52;6.85;;;4.15;;
77262;SDS011;66373;52.334;4.806;2024-01-30T09:14:21;5.88;;;3.45;;
77262;SDS011;66373;52.334;4.806;2024-01-30T09:16:48;6.22;;;4.15;;
77262;SDS011;66373;52.334;4.806;2024-01-30T09:19:15;6.75;;;3.85;;
77262;SDS011;66373;52.334;4.806;2024-01-30T09:21:42;7.03;;;3.75;;
77262;SDS011;66373;52.334;4.806;2024-01-30T09:24:09;7.20;;;3.80;;
77262;SDS011;66373;52.334;4.806;2024-01-30T09:26:36;5.72;;;4.03;;
77262;SDS011;66373;52.334;4.806;2024-01-30T09:29:03;7.10;;;4.10;;
77262;SDS011;66373;52.334;4.806;2024-01-30T09:31:32;4.85;;;3.55;;
77262;SDS011;66373;52.334;4.806;2024-01-30T09:33:59;7.35;;;3.70;;
77262;SDS011;66373;52.334;4.806;2024-01-30T09:36:26;5.55;;;3.85;;
77262;SDS011;66373;52.334;4.806;2024-01-30T09:38:54;6.22;;;3.70;;
77262;SDS011;66373;52.334;4.806;2024-01-30T09:41:21;5.38;;;3.75;;
77262;SDS011;66373;52.334;4.806;2024-01-30T09:43:51;5.10;;;3.90;;
77262;SDS011;66373;52.334;4.806;2024-01-30T09:46:19;9.00;;;3.85;;
77262;SDS011;66373;52.334;4.806;2024-01-30T09:48:54;8.00;;;4.53;;
77262;SDS011;66373;52.334;4.806;2024-01-30T09:51:22;7.80;;;3.92;;
77262;SDS011;66373;52.334;4.806;2024-01-30T09:53:50;7.57;;;4.45;;
77262;SDS011;66373;52.334;4.806;2024-01-30T09:56:17;9.48;;;4.05;;
77262;SDS011;66373;52.334;4.806;2024-01-30T09:58:45;5.78;;;3.90;;
77262;SDS011;66373;52.334;4.806;2024-01-30T10:01:12;8.82;;;3.60;;
77262;SDS011;66373;52.334;4.806;2024-01-30T10:03:44;7.88;;;3.90;;
77262;SDS011;66373;52.334;4.806;2024-01-30T10:06:12;7.57;;;3.58;;
77262;SDS011;66373;52.334;4.806;2024-01-30T10:08:42;8.57;;;3.20;;
77262;SDS011;66373;52.334;4.806;2024-01-30T10:11:09;9.88;;;3.08;;
77262;SDS011;66373;52.334;4.806;2024-01-30T10:13:38;5.63;;;3.28;;
77262;SDS011;66373;52.334;4.806;2024-01-30T10:16:06;5.88;;;3.15;;
77262;SDS011;66373;52.334;4.806;2024-01-30T10:18:33;9.15;;;3.67;;
77262;SDS011;66373;52.334;4.806;2024-01-30T10:21:00;7.45;;;3.05;;
77262;SDS011;66373;52.334;4.806;2024-01-30T10:23:30;8.13;;;3.13;;
77262;SDS011;66373;52.334;4.806;2024-01-30T10:25:57;8.88;;;2.97;;
77262;SDS011;66373;52.334;4.806;2024-01-30T10:28:26;8.20;;;3.20;;
77262;SDS011;66373;52.334;4.806;2024-01-30T10:30:58;5.47;;;3.08;;
77262;SDS011;66373;52.334;4.806;2024-01-30T10:33:26;10.32;;;2.88;;
77262;SDS011;66373;52.334;4.806;2024-01-30T10:35:55;6.95;;;2.70;;
77262;SDS011;66373;52.334;4.806;2024-01-30T10:38:27;5.43;;;2.47;;
77262;SDS011;66373;52.334;4.806;2024-01-30T10:40:58;6.43;;;2.60;;
77262;SDS011;66373;52.334;4.806;2024-01-30T10:43:28;6.30;;;2.92;;
77262;SDS011;66373;52.334;4.806;2024-01-30T10:45:59;5.57;;;2.78;;
77262;SDS011;66373;52.334;4.806;2024-01-30T10:48:36;6.80;;;2.83;;
77262;SDS011;66373;52.334;4.806;2024-01-30T10:51:10;3.75;;;2.45;;
77262;SDS011;66373;52.334;4.806;2024-01-30T10:53:39;5.32;;;2.10;;
77262;SDS011;66373;52.334;4.806;2024-01-30T10:56:10;3.65;;;1.98;;
77262;SDS011;66373;52.334;4.806;2024-01-30T10:58:38;6.88;;;2.50;;
77262;SDS011;66373;52.334;4.806;2024-01-30T11:01:05;6.05;;;2.38;;
77262;SDS011;66373;52.334;4.806;2024-01-30T11:03:34;6.38;;;2.30;;
77262;SDS011;66373;52.334;4.806;2024-01-30T11:06:02;3.92;;;2.30;;
77262;SDS011;66373;52.334;4.806;2024-01-30T11:08:32;3.15;;;2.22;;
77262;SDS011;66373;52.334;4.806;2024-01-30T11:11:01;6.78;;;2.22;;
77262;SDS011;66373;52.334;4.806;2024-01-30T11:13:28;4.68;;;2.30;;
77262;SDS011;66373;52.334;4.806;2024-01-30T11:15:59;4.22;;;2.55;;
77262;SDS011;66373;52.334;4.806;2024-01-30T11:18:28;5.15;;;2.47;;
77262;SDS011;66373;52.334;4.806;2024-01-30T11:20:57;6.45;;;2.58;;
77262;SDS011;66373;52.334;4.806;2024-01-30T11:23:26;7.22;;;2.47;;
77262;SDS011;66373;52.334;4.806;2024-01-30T11:25:54;3.08;;;2.00;;
77262;SDS011;66373;52.334;4.806;2024-01-30T11:28:22;4.93;;;2.15;;
77262;SDS011;66373;52.334;4.806;2024-01-30T11:30:50;3.80;;;2.40;;
77262;SDS011;66373;52.334;4.806;2024-01-30T11:33:26;6.32;;;2.40;;
77262;SDS011;66373;52.334;4.806;2024-01-30T11:35:56;3.83;;;2.28;;
77262;SDS011;66373;52.334;4.806;2024-01-30T11:38:25;5.00;;;2.47;;
77262;SDS011;66373;52.334;4.806;2024-01-30T11:40:53;2.90;;;1.92;;
77262;SDS011;66373;52.334;4.806;2024-01-30T11:43:23;5.63;;;2.13;;
77262;SDS011;66373;52.334;4.806;2024-01-30T11:45:50;6.90;;;2.22;;
77262;SDS011;66373;52.334;4.806;2024-01-30T11:48:18;4.05;;;1.95;;
77262;SDS011;66373;52.334;4.806;2024-01-30T11:50:45;4.55;;;2.47;;
77262;SDS011;66373;52.334;4.806;2024-01-30T11:53:13;3.00;;;1.98;;
77262;SDS011;66373;52.334;4.806;2024-01-30T11:55:40;3.22;;;2.03;;
77262;SDS011;66373;52.334;4.806;2024-01-30T11:58:08;3.78;;;2.28;;
77262;SDS011;66373;52.334;4.806;2024-01-30T12:00:36;3.83;;;2.35;;
77262;SDS011;66373;52.334;4.806;2024-01-30T12:03:04;3.60;;;1.90;;
77262;SDS011;66373;52.334;4.806;2024-01-30T12:05:32;2.42;;;2.17;;
77262;SDS011;66373;52.334;4.806;2024-01-30T12:07:59;2.35;;;2.15;;
77262;SDS011;66373;52.334;4.806;2024-01-30T12:10:26;3.30;;;2.35;;
77262;SDS011;66373;52.334;4.806;2024-01-30T12:12:54;3.33;;;1.98;;
77262;SDS011;66373;52.334;4.806;2024-01-30T12:15:21;5.95;;;2.15;;
77262;SDS011;66373;52.334;4.806;2024-01-30T12:17:49;3.03;;;2.15;;
77262;SDS011;66373;52.334;4.806;2024-01-30T12:20:18;3.55;;;1.77;;
77262;SDS011;66373;52.334;4.806;2024-01-30T12:22:47;6.13;;;2.22;;
77262;SDS011;66373;52.334;4.806;2024-01-30T12:25:15;4.50;;;2.40;;
77262;SDS011;66373;52.334;4.806;2024-01-30T12:27:44;6.25;;;2.15;;
77262;SDS011;66373;52.334;4.806;2024-01-30T12:32:43;3.72;;;2.15;;
77262;SDS011;66373;52.334;4.806;2024-01-30T12:35:12;2.45;;;1.92;;
77262;SDS011;66373;52.334;4.806;2024-01-30T12:37:40;3.80;;;1.95;;
77262;SDS011;66373;52.334;4.806;2024-01-30T12:40:09;3.88;;;2.25;;
77262;SDS011;66373;52.334;4.806;2024-01-30T12:42:39;3.30;;;2.10;;
77262;SDS011;66373;52.334;4.806;2024-01-30T12:45:08;3.28;;;2.22;;
77262;SDS011;66373;52.334;4.806;2024-01-30T12:47:35;3.63;;;2.20;;
77262;SDS011;66373;52.334;4.806;2024-01-30T12:50:03;2.97;;;2.13;;
77262;SDS011;66373;52.334;4.806;2024-01-30T12:52:31;6.22;;;2.40;;
77262;SDS011;66373;52.334;4.806;2024-01-30T12:54:59;3.70;;;1.90;;
77262;SDS011;66373;52.334;4.806;2024-01-30T12:57:26;4.32;;;2.58;;
77262;SDS011;66373;52.334;4.806;2024-01-30T12:59:53;3.85;;;1.92;;
77262;SDS011;66373;52.334;4.806;2024-01-30T13:02:20;3.90;;;2.17;;
77262;SDS011;66373;52.334;4.806;2024-01-30T13:04:48;3.83;;;2.10;;
77262;SDS011;66373;52.334;4.806;2024-01-30T13:07:15;3.70;;;2.03;;
77262;SDS011;66373;52.334;4.806;2024-01-30T13:09:43;3.55;;;2.03;;
77262;SDS011;66373;52.334;4.806;2024-01-30T13:12:11;3.88;;;2.17;;
77262;SDS011;66373;52.334;4.806;2024-01-30T13:14:38;2.75;;;2.15;;
77262;SDS011;66373;52.334;4.806;2024-01-30T13:17:05;3.28;;;1.92;;
77262;SDS011;66373;52.334;4.806;2024-01-30T13:19:32;3.60;;;2.00;;
77262;SDS011;66373;52.334;4.806;2024-01-30T13:21:59;6.03;;;2.17;;
77262;SDS011;66373;52.334;4.806;2024-01-30T13:24:26;3.13;;;2.00;;
77262;SDS011;66373;52.334;4.806;2024-01-30T13:26:55;4.88;;;2.13;;
77262;SDS011;66373;52.334;4.806;2024-01-30T13:29:22;2.92;;;1.90;;
77262;SDS011;66373;52.334;4.806;2024-01-30T13:31:49;7.88;;;2.40;;
77262;SDS011;66373;52.334;4.806;2024-01-30T13:34:17;3.03;;;2.15;;
77262;SDS011;66373;52.334;4.806;2024-01-30T13:36:44;2.17;;;1.92;;
77262;SDS011;66373;52.334;4.806;2024-01-30T13:39:11;5.03;;;2.00;;
77262;SDS011;66373;52.334;4.806;2024-01-30T13:41:38;4.45;;;2.05;;
77262;SDS011;66373;52.334;4.806;2024-01-30T13:44:07;5.03;;;2.50;;
77262;SDS011;66373;52.334;4.806;2024-01-30T13:46:34;6.50;;;2.28;;
77262;SDS011;66373;52.334;4.806;2024-01-30T13:49:02;3.58;;;2.35;;
77262;SDS011;66373;52.334;4.806;2024-01-30T13:51:29;2.95;;;2.10;;
77262;SDS011;66373;52.334;4.806;2024-01-30T13:53:56;3.75;;;2.60;;
77262;SDS011;66373;52.334;4.806;2024-01-30T13:56:23;7.20;;;2.47;;
77262;SDS011;66373;52.334;4.806;2024-01-30T13:58:52;2.92;;;2.03;;
77262;SDS011;66373;52.334;4.806;2024-01-30T14:01:22;4.85;;;2.65;;
77262;SDS011;66373;52.334;4.806;2024-01-30T14:03:49;2.90;;;2.28;;
77262;SDS011;66373;52.334;4.806;2024-01-30T14:06:16;2.38;;;2.13;;
77262;SDS011;66373;52.334;4.806;2024-01-30T14:08:44;2.20;;;2.00;;
77262;SDS011;66373;52.334;4.806;2024-01-30T14:11:11;6.82;;;2.90;;
77262;SDS011;66373;52.334;4.806;2024-01-30T14:13:38;5.47;;;2.67;;
77262;SDS011;66373;52.334;4.806;2024-01-30T14:16:05;6.70;;;2.58;;
77262;SDS011;66373;52.334;4.806;2024-01-30T14:18:34;4.82;;;2.80;;
77262;SDS011;66373;52.334;4.806;2024-01-30T14:21:01;5.15;;;3.00;;
77262;SDS011;66373;52.334;4.806;2024-01-30T14:23:28;2.85;;;2.50;;
77262;SDS011;66373;52.334;4.806;2024-01-30T14:25:56;6.32;;;3.05;;
77262;SDS011;66373;52.334;4.806;2024-01-30T14:28:23;2.88;;;2.58;;
77262;SDS011;66373;52.334;4.806;2024-01-30T14:30:50;4.40;;;2.83;;
77262;SDS011;66373;52.334;4.806;2024-01-30T14:33:17;5.32;;;2.97;;
77262;SDS011;66373;52.334;4.806;2024-01-30T14:35:45;10.18;;;2.63;;
77262;SDS011;66373;52.334;4.806;2024-01-30T14:38:13;4.10;;;2.63;;
77262;SDS011;66373;52.334;4.806;2024-01-30T14:40:40;6.25;;;2.88;;
77262;SDS011;66373;52.334;4.806;2024-01-30T14:43:08;7.13;;;2.75;;
77262;SDS011;66373;52.334;4.806;2024-01-30T14:45:35;4.20;;;2.90;;
77262;SDS011;66373;52.334;4.806;2024-01-30T14:48:02;3.22;;;2.63;;
77262;SDS011;66373;52.334;4.806;2024-01-30T14:50:30;5.38;;;2.72;;